Holberg, Canada
Current Conditions -  °F | °C
As of 2:00 AM on Sunday 26 Oct 2014 (Local Time) from CYZT Reporting Station
Few Clouds Few Clouds  
Wind Chill: 42°   Ceiling: Unl
Heat Index: 46°   Visibility: 15mi
Dew Point: 43°   Wind: 9mph
Humidity: 87%   Direction: 220°SW
Pressure: 29.67"   Gusts: NA
Location:  50.65°N, 128.02°W
Report Text: CYZT 260900Z 22008KT 15SM FEW047 FEW220 08/06 A2967 RMK SC1CI1 SC TR SLP046
Loading
Personal Weather Stations






























Interactive Weather Map
Tropical Storm Tracking
New forecast layout! Learn more

10-Day Weather Forecast

Advertisements
Track Severe Weather on mobile